KRIV/RIV METAR and TAF weather

Enter ICAO airport designator
Station Type Date Time Source
KRIV METAR 2019/12/09 13:43 UTC NOAA

KRIV 091343Z 19003KT 7SM BKN003 BKN085 09/09 A3002 RMK AO2A SLP165


Station Type Date Time Source
KRIV Decoded METAR 2019/12/09 13:43 UTC NOAA

Riverside / March Air Force Base, CA, United States (KRIV) 33-54N 117-15W 468M
Dec 09, 2019 - 08:43 AM EST / 2019.12.09 1343 UTC
Wind: from the S (190 degrees) at 3 MPH (3 KT):0
Visibility: 7 mile(s):0
Sky conditions: mostly cloudy
Temperature: 48 F (9 C)
Dew Point: 48 F (9 C)
Relative Humidity: 100%
Pressure (altimeter): 30.02 in. Hg (1016 hPa)
ob: KRIV 091343Z 19003KT 7SM BKN003 BKN085 09/09 A3002 RMK AO2A SLP165
cycle: 13

Station Type Date Time Source
KRIV TAF 2019/12/09 13:31 UTC NOAA

TAF
AMD KRIV 091311Z 0913/1018 VRB06KT 9999 OVC002 520505 QNH2999INS
TEMPO 0914/0915 SCT002 SCT015 BKN100
BECMG 0914/0915 26006KT 9999 SCT015 BKN100 520505 QNH3008INS
BECMG 0918/0919 34009KT 9999 FEW250 QNH3006INS
TEMPO 0920/1001 35012G18KT
BECMG 1002/1003 VRB06KT 9999 FEW250 QNH3011INS TX17/0922Z TN09/0914Z

Example: see airport list